Time;durP1;ratioP1;P1;durP2;ratioP2;P2;SDS_P1;SDS_P2;PMS_P1;PMS_P2;Temp;Humidity;BMP_temperature;BMP_pressure;BME280_temperature;BME280_humidity;BME280_pressure;Samples;Min_cycle;Max_cycle;Signal;HPM_P1;HPM_P2
2023/10/07 00:01:48;;;;;;;12.57;3.13;;;;;;;;;;5041306;28;20560;-84
2023/10/07 00:04:14;;;;;;;7.28;3.13;;;;;;;;;;5040366;28;20434;-83
2023/10/07 00:06:40;;;;;;;5.43;2.70;;;;;;;;;;5039266;28;20398;-84
2023/10/07 00:09:10;;;;;;;9.00;3.00;;;;;;;;;;5037982;28;20413;-83
2023/10/07 00:11:37;;;;;;;11.13;3.35;;;;;;;;;;5042110;28;20637;-83
2023/10/07 00:14:07;;;;;;;11.82;2.97;;;;;;;;;;5035659;28;20482;-83
2023/10/07 00:16:36;;;;;;;8.95;2.67;;;;;;;;;;5042482;28;20200;-83
2023/10/07 00:19:03;;;;;;;11.00;3.70;;;;;;;;;;5040107;28;20039;-83
2023/10/07 00:21:53;;;;;;;8.77;2.85;;;;;;;;;;5041867;28;20075;-83
2023/10/07 00:24:17;;;;;;;8.07;3.60;;;;;;;;;;5040374;28;20067;-83
2023/10/07 00:26:47;;;;;;;10.27;3.78;;;;;;;;;;5027247;28;20029;-84
2023/10/07 00:29:13;;;;;;;8.40;2.75;;;;;;;;;;5037256;28;20389;-83
2023/10/07 00:31:40;;;;;;;9.48;3.22;;;;;;;;;;5040337;28;20108;-83
2023/10/07 00:34:18;;;;;;;8.88;2.70;;;;;;;;;;5036383;28;20029;-83
2023/10/07 00:36:47;;;;;;;9.98;3.35;;;;;;;;;;5043303;28;20112;-83
2023/10/07 00:39:20;;;;;;;8.20;3.00;;;;;;;;;;5040915;28;20026;-83
2023/10/07 00:41:46;;;;;;;7.18;2.67;;;;;;;;;;5037855;28;20047;-83
2023/10/07 00:46:49;;;;;;;13.38;3.33;;;;;;;;;;5040248;28;20055;-83
2023/10/07 00:49:22;;;;;;;10.00;3.03;;;;;;;;;;5041301;28;20021;-84
2023/10/07 00:51:49;;;;;;;7.20;3.10;;;;;;;;;;5045060;28;20061;-84
2023/10/07 00:54:30;;;;;;;7.28;2.97;;;;;;;;;;5040141;28;20046;-82
2023/10/07 00:59:36;;;;;;;8.65;3.45;;;;;;;;;;5039684;28;20397;-84
2023/10/07 01:02:06;;;;;;;10.77;3.10;;;;;;;;;;5045337;28;20536;-83
2023/10/07 01:04:40;;;;;;;15.13;4.13;;;;;;;;;;5043700;28;20036;-84
2023/10/07 01:07:07;;;;;;;8.55;3.83;;;;;;;;;;5037880;28;20091;-83
2023/10/07 01:09:33;;;;;;;12.60;3.45;;;;;;;;;;5039595;28;20020;-83
2023/10/07 01:11:59;;;;;;;12.20;3.58;;;;;;;;;;5039770;28;20040;-83
2023/10/07 01:14:33;;;;;;;14.45;3.10;;;;;;;;;;5037701;28;20052;-83
2023/10/07 01:17:00;;;;;;;9.00;3.08;;;;;;;;;;5043981;28;20115;-84
2023/10/07 01:19:35;;;;;;;11.95;3.95;;;;;;;;;;5044386;28;20029;-82
2023/10/07 01:22:09;;;;;;;7.57;2.80;;;;;;;;;;5042782;28;20474;-82
2023/10/07 01:24:45;;;;;;;6.97;2.97;;;;;;;;;;5039319;28;20037;-83
2023/10/07 01:27:21;;;;;;;8.93;3.85;;;;;;;;;;5041296;28;20025;-83
2023/10/07 01:29:59;;;;;;;9.95;4.28;;;;;;;;;;5041673;28;20402;-82
2023/10/07 01:32:31;;;;;;;15.07;4.25;;;;;;;;;;5049235;28;20021;-83
2023/10/07 01:34:58;;;;;;;11.35;2.78;;;;;;;;;;5043809;28;20017;-83
2023/10/07 01:37:25;;;;;;;11.82;4.18;;;;;;;;;;5039731;28;20043;-84
2023/10/07 01:39:54;;;;;;;12.07;3.25;;;;;;;;;;5040740;28;20033;-82
2023/10/07 01:42:26;;;;;;;11.48;3.35;;;;;;;;;;5043835;28;20029;-83
2023/10/07 01:45:01;;;;;;;9.15;4.00;;;;;;;;;;5040531;28;20036;-82
2023/10/07 01:47:29;;;;;;;9.52;3.50;;;;;;;;;;5043014;28;20021;-83
2023/10/07 01:49:57;;;;;;;10.45;3.70;;;;;;;;;;5038690;28;20025;-83
2023/10/07 01:52:27;;;;;;;12.23;3.58;;;;;;;;;;5042469;28;20386;-83
2023/10/07 01:54:58;;;;;;;13.23;3.80;;;;;;;;;;5040335;28;20021;-82
2023/10/07 01:57:24;;;;;;;9.05;3.53;;;;;;;;;;5044662;28;20028;-83
2023/10/07 01:59:57;;;;;;;11.00;3.00;;;;;;;;;;5038620;28;20025;-83
2023/10/07 02:02:26;;;;;;;5.95;3.17;;;;;;;;;;5042116;28;20052;-83
2023/10/07 02:04:55;;;;;;;12.02;3.53;;;;;;;;;;5042043;28;20037;-83
2023/10/07 02:07:22;;;;;;;12.00;3.83;;;;;;;;;;5050706;28;20720;-81
2023/10/07 02:09:48;;;;;;;8.20;3.53;;;;;;;;;;5064967;28;20021;-81
2023/10/07 02:12:18;;;;;;;13.80;3.72;;;;;;;;;;5043057;28;20037;-84
2023/10/07 02:14:44;;;;;;;14.80;4.00;;;;;;;;;;5028476;28;20057;-83
2023/10/07 02:17:14;;;;;;;9.60;2.95;;;;;;;;;;5042617;28;20037;-84
2023/10/07 02:19:43;;;;;;;11.25;3.65;;;;;;;;;;5038984;28;20553;-84
2023/10/07 02:22:21;;;;;;;12.95;2.70;;;;;;;;;;5049395;28;20021;-83
2023/10/07 02:24:53;;;;;;;9.23;2.95;;;;;;;;;;5055394;28;20010;-82
2023/10/07 02:27:19;;;;;;;12.65;3.40;;;;;;;;;;5054694;28;20049;-81
2023/10/07 02:29:53;;;;;;;10.57;3.80;;;;;;;;;;5056685;28;20049;-81
2023/10/07 02:32:19;;;;;;;9.23;2.95;;;;;;;;;;5063560;28;20029;-81
2023/10/07 02:34:51;;;;;;;9.38;3.22;;;;;;;;;;5058115;28;20044;-81
2023/10/07 02:37:21;;;;;;;9.70;3.60;;;;;;;;;;5042238;28;20150;-82
2023/10/07 02:39:47;;;;;;;7.97;3.40;;;;;;;;;;5040007;28;20485;-84
2023/10/07 02:42:21;;;;;;;14.40;4.68;;;;;;;;;;5038484;28;20029;-84
2023/10/07 02:44:48;;;;;;;18.15;3.95;;;;;;;;;;5036817;28;20075;-84
2023/10/07 02:47:14;;;;;;;11.48;3.40;;;;;;;;;;5043162;28;20385;-84
2023/10/07 02:49:40;;;;;;;8.20;2.95;;;;;;;;;;5039787;28;20032;-84
2023/10/07 02:52:06;;;;;;;8.50;3.40;;;;;;;;;;5040075;28;20029;-83
2023/10/07 02:54:33;;;;;;;8.27;2.88;;;;;;;;;;5045405;28;20131;-84
2023/10/07 02:57:06;;;;;;;9.48;3.10;;;;;;;;;;5043099;28;20040;-84
2023/10/07 02:59:41;;;;;;;9.52;3.17;;;;;;;;;;5043459;28;20547;-83
2023/10/07 03:07:41;;;;;;;13.00;3.97;;;;;;;;;;5042688;28;20083;-84
2023/10/07 03:10:17;;;;;;;11.38;3.38;;;;;;;;;;5041246;28;20570;-84
2023/10/07 03:12:56;;;;;;;8.90;2.90;;;;;;;;;;5041627;28;20028;-83
2023/10/07 03:18:00;;;;;;;11.77;3.30;;;;;;;;;;5042420;28;20041;-83
2023/10/07 03:20:30;;;;;;;14.18;3.55;;;;;;;;;;5042798;28;20044;-83
2023/10/07 03:23:25;;;;;;;9.85;3.28;;;;;;;;;;5047526;28;20112;-84
2023/10/07 03:28:21;;;;;;;13.75;3.15;;;;;;;;;;5041862;28;20057;-84
2023/10/07 03:30:51;;;;;;;11.52;3.33;;;;;;;;;;5043279;28;20024;-83
2023/10/07 03:33:32;;;;;;;6.38;2.22;;;;;;;;;;5041484;28;20025;-83
2023/10/07 03:38:27;;;;;;;14.80;4.38;;;;;;;;;;5040245;28;20044;-82
2023/10/07 03:40:55;;;;;;;7.30;3.47;;;;;;;;;;5039031;28;20025;-83
2023/10/07 03:43:25;;;;;;;9.93;3.05;;;;;;;;;;5040041;28;20115;-83
2023/10/07 03:45:51;;;;;;;11.70;3.38;;;;;;;;;;5039980;28;20187;-83
2023/10/07 03:48:23;;;;;;;9.50;3.03;;;;;;;;;;5043581;28;20107;-83
2023/10/07 03:51:12;;;;;;;6.57;2.55;;;6.30;99.90;;;;;;5042523;28;20025;-83
2023/10/07 03:53:47;;;;;;;11.63;3.25;;;;;;;;;;5039151;28;20481;-83
2023/10/07 03:56:14;;;;;;;6.22;3.17;;;;;;;;;;5039911;28;20021;-84
2023/10/07 03:58:43;;;;;;;12.90;2.95;;;;;;;;;;5037560;28;20033;-84
2023/10/07 04:01:22;;;;;;;13.23;4.45;;;;;;;;;;5039758;28;20028;-82
2023/10/07 04:03:50;;;;;;;8.68;3.65;;;6.20;99.90;;;;;;5042063;28;20029;-83
2023/10/07 04:06:30;;;;;;;13.00;3.88;;;;;;;;;;5038244;28;20518;-84
2023/10/07 04:09:00;;;;;;;8.45;3.25;;;;;;;;;;5038226;28;20026;-83
2023/10/07 04:11:31;;;;;;;13.35;3.72;;;;;;;;;;5044850;28;20039;-83
2023/10/07 04:14:05;;;;;;;13.55;4.13;;;;;;;;;;5039705;28;20021;-85
2023/10/07 04:16:33;;;;;;;9.02;2.90;;;;;;;;;;5046468;28;20021;-83
2023/10/07 04:21:43;;;;;;;7.10;3.35;;;;;;;;;;5039577;28;20044;-83
2023/10/07 04:24:10;;;;;;;8.50;2.92;;;;;;;;;;5043225;28;20033;-83
2023/10/07 04:26:39;;;;;;;6.15;2.58;;;;;;;;;;5044550;28;20033;-83
2023/10/07 04:29:14;;;;;;;11.38;3.65;;;;;;;;;;5042354;28;20024;-83
2023/10/07 04:31:53;;;;;;;9.48;3.55;;;;;;;;;;5047941;28;20017;-83
2023/10/07 04:34:23;;;;;;;6.20;2.78;;;;;;;;;;5041564;28;20028;-83
2023/10/07 04:42:36;;;;;;;9.93;3.05;;;;;;;;;;5045928;28;20028;-83
2023/10/07 04:48:34;;;;;;;9.65;3.45;;;;;;;;;;5091829;28;20091;-82
2023/10/07 04:51:05;;;;;;;9.65;2.60;;;;;;;;;;5065484;28;20878;-86
2023/10/07 04:53:40;;;;;;;8.80;3.30;;;;;;;;;;5035793;28;20022;-83
2023/10/07 04:56:06;;;;;;;15.73;3.50;;;;;;;;;;5042566;28;20029;-83
2023/10/07 04:58:33;;;;;;;7.22;3.13;;;;;;;;;;5038082;28;20037;-84
2023/10/07 05:01:05;;;;;;;11.43;3.78;;;;;;;;;;5041611;28;20028;-84
2023/10/07 05:03:31;;;;;;;10.63;3.70;;;;;;;;;;5037978;28;20421;-84
2023/10/07 05:05:58;;;;;;;7.75;3.03;;;;;;;;;;5041025;28;20021;-84
2023/10/07 05:08:27;;;;;;;10.65;3.28;;;;;;;;;;5039462;28;20463;-84
2023/10/07 05:10:54;;;;;;;8.95;2.80;;;;;;;;;;5035566;28;20029;-84
2023/10/07 05:13:20;;;;;;;13.40;3.83;;;;;;;;;;5037898;28;20036;-84
2023/10/07 05:15:46;;;;;;;13.75;4.47;;;;;;;;;;5042954;28;20025;-84
2023/10/07 05:18:13;;;;;;;8.75;3.20;;;;;;;;;;5042536;28;20029;-84
2023/10/07 05:20:46;;;;;;;7.53;2.75;;;6.00;99.90;;;;;;5039530;28;20041;-84
2023/10/07 05:23:14;;;;;;;9.45;3.92;;;;;;;;;;5040376;28;20129;-83
2023/10/07 05:25:48;;;;;;;6.00;3.00;;;;;;;;;;5039519;28;20033;-84
2023/10/07 05:28:17;;;;;;;6.78;3.65;;;;;;;;;;5041055;28;20025;-84
2023/10/07 05:30:52;;;;;;;14.73;4.35;;;;;;;;;;5036110;28;20478;-83
2023/10/07 05:33:25;;;;;;;9.23;2.42;;;;;;;;;;5040543;28;20115;-83
2023/10/07 05:36:11;;;;;;;12.50;4.20;;;5.10;99.90;;;;;;5041188;28;20366;-83
2023/10/07 05:38:38;;;;;;;13.35;3.28;;;;;;;;;;5040395;28;20028;-84
2023/10/07 05:41:06;;;;;;;12.50;3.03;;;;;;;;;;5035795;28;20036;-84
2023/10/07 05:43:32;;;;;;;9.20;3.50;;;;;;;;;;5041893;28;20512;-83
2023/10/07 05:45:58;;;;;;;10.73;3.90;;;;;;;;;;5037336;28;20032;-84
2023/10/07 05:48:24;;;;;;;7.68;3.15;;;;;;;;;;5041654;28;20021;-84
2023/10/07 05:50:51;;;;;;;7.20;3.55;;;;;;;;;;5035430;28;20397;-83
2023/10/07 05:53:17;;;;;;;14.60;4.10;;;;;;;;;;5041729;28;20028;-83
2023/10/07 05:55:43;;;;;;;9.13;2.72;;;;;;;;;;5037168;28;20456;-84
2023/10/07 05:58:08;;;;;;;8.90;3.35;;;;;;;;;;5043267;28;20124;-83
2023/10/07 06:00:36;;;;;;;8.95;3.53;;;;;;;;;;5035488;28;20112;-83
2023/10/07 06:03:06;;;;;;;13.35;4.60;;;;;;;;;;5040903;28;20080;-84
2023/10/07 06:05:33;;;;;;;8.52;3.88;;;;;;;;;;5045001;28;20520;-84
2023/10/07 06:07:59;;;;;;;8.80;4.15;;;;;;;;;;5043315;28;20029;-84
2023/10/07 06:10:25;;;;;;;11.27;3.72;;;;;;;;;;5038527;28;20127;-84
2023/10/07 06:12:53;;;;;;;13.77;4.30;;;;;;;;;;5038807;28;20468;-84
2023/10/07 06:15:20;;;;;;;10.55;4.22;;;;;;;;;;5038079;28;20025;-83
2023/10/07 06:17:46;;;;;;;8.23;3.78;;;;;;;;;;5042763;28;20063;-83
2023/10/07 06:20:15;;;;;;;16.60;4.28;;;;;;;;;;5039294;28;20100;-85
2023/10/07 06:22:50;;;;;;;16.02;4.57;;;6.60;99.90;;;;;;5040818;28;20025;-85
2023/10/07 06:25:33;;;;;;;14.70;4.25;;;;;;;;;;5042304;28;20029;-85
2023/10/07 06:27:59;;;;;;;23.83;8.20;;;;;;;;;;5041218;28;20035;-84
2023/10/07 06:30:27;;;;;;;24.65;10.25;;;;;;;;;;5047424;28;20089;-83
2023/10/07 06:32:56;;;;;;;34.45;12.20;;;;;;;;;;5045788;28;20029;-85
2023/10/07 06:35:23;;;;;;;40.58;11.13;;;;;;;;;;5041942;28;20116;-85
2023/10/07 06:37:51;;;;;;;14.85;5.05;;;;;;;;;;5035532;28;20033;-85
2023/10/07 06:40:29;;;;;;;12.80;5.35;;;;;;;;;;5043422;28;20083;-85
2023/10/07 06:42:58;;;;;;;24.80;9.95;;;7.00;99.90;;;;;;5044927;28;20093;-85
2023/10/07 06:45:29;;;;;;;23.15;9.02;;;;;;;;;;5041372;28;20029;-85
2023/10/07 06:47:59;;;;;;;21.17;6.10;;;;;;;;;;5037516;28;20051;-85
2023/10/07 06:50:27;;;;;;;10.20;5.00;;;;;;;;;;5047367;28;20025;-84
2023/10/07 06:52:55;;;;;;;11.60;5.15;;;;;;;;;;5040391;28;20045;-84
2023/10/07 06:55:22;;;;;;;18.58;4.75;;;8.20;99.90;;;;;;5041519;28;20029;-84
2023/10/07 06:57:48;;;;;;;12.75;4.88;;;;;;;;;;5044410;28;20033;-86
2023/10/07 07:00:27;;;;;;;11.13;5.55;;;;;;;;;;5032966;28;20034;-84
2023/10/07 07:02:59;;;;;;;14.02;4.65;;;;;;;;;;5052261;28;20497;-86
2023/10/07 07:05:27;;;;;;;9.43;4.28;;;;;;;;;;5049628;28;20074;-85
2023/10/07 07:07:54;;;;;;;15.63;5.13;;;;;;;;;;5037323;28;20060;-85
2023/10/07 07:10:27;;;;;;;15.57;5.30;;;9.00;99.90;;;;;;5037154;28;20072;-86
2023/10/07 07:12:58;;;;;;;14.57;4.47;;;;;;;;;;5042640;28;20025;-85
2023/10/07 07:15:28;;;;;;;13.90;4.75;;;;;;;;;;5032302;28;20033;-85
2023/10/07 07:23:24;;;;;;;15.35;5.75;;;9.50;99.90;;;;;;5042314;28;20075;-85
2023/10/07 07:26:03;;;;;;;13.38;5.60;;;;;;;;;;5038089;28;20609;-85
2023/10/07 07:28:30;;;;;;;16.55;5.15;;;;;;;;;;5061818;28;20108;-85
2023/10/07 07:30:58;;;;;;;13.10;5.80;;;;;;;;;;5046953;28;20014;-86
2023/10/07 07:33:34;;;;;;;16.45;6.10;;;10.80;99.90;;;;;;5040519;28;20282;-85
2023/10/07 07:36:06;;;;;;;16.33;5.85;;;;;;;;;;5043130;28;20028;-85
2023/10/07 07:38:43;;;;;;;18.40;5.95;;;;;;;;;;5040985;28;20037;-86
2023/10/07 07:41:09;;;;;;;11.73;3.97;;;;;;;;;;5035244;28;21655;-85
2023/10/07 07:43:37;;;;;;;11.35;3.50;;;;;;;;;;5046060;28;20097;-85
2023/10/07 07:46:18;;;;;;;12.20;4.20;;;;;;;;;;5033651;28;20156;-85
2023/10/07 07:48:47;;;;;;;10.98;4.03;;;;;;;;;;5029371;28;20024;-85
2023/10/07 07:51:17;;;;;;;12.13;4.60;;;;;;;;;;5039231;28;20060;-85
2023/10/07 07:53:46;;;;;;;8.98;3.53;;;;;;;;;;5037397;28;20500;-86
2023/10/07 07:56:15;;;;;;;7.55;3.00;;;;;;;;;;5036624;28;20060;-84
2023/10/07 07:58:46;;;;;;;14.65;3.72;;;;;;;;;;5037833;28;20116;-86
2023/10/07 08:01:18;;;;;;;10.13;2.95;;;;;;;;;;5039252;28;20025;-86
2023/10/07 08:03:44;;;;;;;8.95;3.17;;;;;;;;;;5033003;28;20412;-86
2023/10/07 08:06:19;;;;;;;11.43;4.40;;;;;;;;;;5035591;28;20040;-86
2023/10/07 08:08:46;;;;;;;9.13;3.00;;;;;;;;;;5041632;28;20037;-87
2023/10/07 08:11:14;;;;;;;11.73;3.33;;;;;;;;;;5042785;28;20071;-86
2023/10/07 08:13:40;;;;;;;11.70;3.55;;;;;;;;;;5036035;28;20512;-86
2023/10/07 08:16:06;;;;;;;8.07;2.80;;;;;;;;;;5042508;28;20033;-86
2023/10/07 08:18:32;;;;;;;26.77;10.93;;;;;;;;;;5042224;28;20059;-86
2023/10/07 08:21:13;;;;;;;26.05;10.63;;;;;;;;;;5036593;28;20029;-86
2023/10/07 08:23:51;;;;;;;17.30;6.15;;;;;;;;;;5031123;28;20120;-84
2023/10/07 08:26:22;;;;;;;8.93;3.47;;;;;;;;;;5038480;28;20036;-85
2023/10/07 08:28:59;;;;;;;7.32;2.80;;;;;;;;;;5040281;28;20026;-85
2023/10/07 08:31:38;;;;;;;11.85;4.28;;;;;;;;;;5041273;28;20059;-86
2023/10/07 08:34:09;;;;;;;12.73;4.50;;;;;;;;;;5035937;28;20149;-87
2023/10/07 08:36:43;;;;;;;10.27;2.75;;;;;;;;;;5043846;28;20018;-86
2023/10/07 08:39:09;;;;;;;11.75;3.92;;;;;;;;;;5035175;28;20021;-86
2023/10/07 08:41:40;;;;;;;13.07;2.92;;;14.00;99.90;;;;;;5039615;28;20106;-86
2023/10/07 08:44:14;;;;;;;7.85;2.65;;;13.90;99.90;;;;;;5032271;28;20025;-85
2023/10/07 08:46:54;;;;;;;8.63;2.80;;;14.00;99.90;;;;;;5040624;28;20490;-85
2023/10/07 08:49:27;;;;;;;8.10;3.25;;;13.80;99.90;;;;;;5035292;28;20041;-86
2023/10/07 08:51:56;;;;;;;9.77;3.25;;;;;;;;;;5035743;28;20583;-88
2023/10/07 08:54:26;;;;;;;7.10;2.20;;;13.80;99.90;;;;;;5039592;28;20037;-86
2023/10/07 08:56:57;;;;;;;11.65;2.55;;;13.90;99.90;;;;;;5039769;28;20033;-87
2023/10/07 08:59:25;;;;;;;13.20;2.72;;;;;;;;;;5037870;28;20127;-87
2023/10/07 09:01:57;;;;;;;10.70;2.88;;;14.30;99.90;;;;;;5038259;28;20421;-87
2023/10/07 09:04:31;;;;;;;12.10;2.75;;;;;;;;;;5035843;28;20032;-87
2023/10/07 09:06:57;;;;;;;9.75;2.67;;;;;;;;;;5039754;28;20057;-86
2023/10/07 09:09:43;;;;;;;10.43;3.75;;;;;;;;;;5035430;28;20052;-86
2023/10/07 09:12:15;;;;;;;8.35;2.40;;;;;;;;;;5039072;28;20218;-87
2023/10/07 09:14:52;;;;;;;8.27;2.50;;;;;;;;;;5035872;28;20473;-87
2023/10/07 09:17:21;;;;;;;9.77;3.38;;;;;;;;;;5035081;28;20028;-86
2023/10/07 09:19:49;;;;;;;5.53;2.55;;;;;;;;;;5032677;28;20037;-86
2023/10/07 09:22:18;;;;;;;11.18;2.63;;;;;;;;;;5035807;28;20052;-87
2023/10/07 09:24:44;;;;;;;7.13;2.33;;;;;;;;;;5038038;28;20039;-87
2023/10/07 09:27:14;;;;;;;10.13;2.85;;;;;;;;;;5032394;28;21538;-86
2023/10/07 09:29:44;;;;;;;10.93;2.97;;;;;;;;;;5025458;28;20029;-87
2023/10/07 09:32:16;;;;;;;8.30;2.65;;;;;;;;;;5024646;28;22539;-87
2023/10/07 09:34:44;;;;;;;4.28;2.28;;;;;;;;;;5033680;28;20026;-87
2023/10/07 09:37:13;;;;;;;8.00;2.50;;;;;;;;;;5040411;28;20033;-86
2023/10/07 09:39:44;;;;;;;8.10;2.75;;;;;;;;;;5033452;28;20090;-86
2023/10/07 09:45:08;;;;;;;6.35;1.90;;;14.10;99.90;;;;;;5038239;28;20102;-86
2023/10/07 09:47:38;;;;;;;11.57;2.65;;;;;;;;;;5050328;28;20005;-86
2023/10/07 09:50:19;;;;;;;7.93;3.22;;;;;;;;;;5053115;28;20045;-86
2023/10/07 09:52:46;;;;;;;7.57;2.25;;;;;;;;;;5050891;28;20034;-86
2023/10/07 09:55:30;;;;;;;6.07;2.42;;;;;;;;;;5053432;28;20024;-86
2023/10/07 09:58:26;;;;;;;11.93;3.17;;;14.80;99.90;;;;;;5054670;28;20029;-86
2023/10/07 10:01:06;;;;;;;9.10;2.55;;;;;;;;;;5028249;28;20128;-86
2023/10/07 10:03:33;;;;;;;10.88;2.85;;;;;;;;;;5030728;28;20032;-85
2023/10/07 10:06:33;;;;;;;10.07;2.50;;;15.00;99.90;;;;;;5038246;28;20503;-87
2023/10/07 10:09:08;;;;;;;6.53;2.38;;;;;;;;;;5037118;28;21367;-85
2023/10/07 10:17:11;;;;;;;6.20;3.15;;;;;;;;;;5054913;28;20033;-86
2023/10/07 10:19:49;;;;;;;6.18;2.67;;;15.40;99.90;;;;;;5038136;28;20375;-86
2023/10/07 10:22:22;;;;;;;6.97;2.17;;;;;;;;;;5037499;28;20021;-87
2023/10/07 10:24:54;;;;;;;8.30;2.42;;;;;;;;;;5037095;28;20024;-86
2023/10/07 10:27:20;;;;;;;8.67;2.80;;;;;;;;;;5040736;28;20083;-88
2023/10/07 10:29:52;;;;;;;8.63;2.83;;;;;;;;;;5030895;28;20037;-87
2023/10/07 10:32:40;;;;;;;9.05;2.78;;;;;;;;;;5031174;28;20033;-87
2023/10/07 10:35:07;;;;;;;9.48;2.65;;;16.60;99.90;;;;;;5029992;28;20025;-85
2023/10/07 10:37:34;;;;;;;11.73;2.58;;;16.60;99.90;;;;;;5033877;28;20477;-86
2023/10/07 10:40:12;;;;;;;8.02;2.45;;;16.70;99.90;;;;;;5031436;28;20424;-88
2023/10/07 10:42:41;;;;;;;9.52;3.00;;;;;;;;;;5037779;28;20032;-85
2023/10/07 10:45:10;;;;;;;7.45;2.33;;;;;;;;;;5031655;28;20033;-85
2023/10/07 10:47:39;;;;;;;9.02;2.70;;;;;;;;;;5037509;28;20025;-86
2023/10/07 10:50:16;;;;;;;10.00;2.85;;;;;;;;;;5035788;28;20039;-86
2023/10/07 10:52:43;;;;;;;9.30;2.90;;;;;;;;;;5034713;28;20056;-86
2023/10/07 10:55:09;;;;;;;6.70;2.97;;;;;;;;;;5039060;28;20025;-86
2023/10/07 10:57:40;;;;;;;11.93;3.53;;;;;;;;;;5030039;28;20053;-87
2023/10/07 11:00:18;;;;;;;9.65;3.88;;;;;;;;;;5037122;28;20106;-86
2023/10/07 11:02:45;;;;;;;11.50;4.10;;;;;;;;;;5036644;28;20120;-86
2023/10/07 11:05:12;;;;;;;12.02;2.92;;;;;;;;;;5033952;28;20029;-86
2023/10/07 11:07:39;;;;;;;10.45;3.25;;;;;;;;;;5034320;28;20639;-86
2023/10/07 11:10:06;;;;;;;6.75;2.75;;;;;;;;;;5037038;28;20029;-86
2023/10/07 11:12:32;;;;;;;8.80;3.00;;;;;;;;;;5038630;28;20504;-85
2023/10/07 11:15:07;;;;;;;5.90;2.47;;;;;;;;;;5025086;28;20383;-86
2023/10/07 11:17:41;;;;;;;7.18;3.75;;;18.20;99.90;;;;;;5045889;28;20028;-86
2023/10/07 11:20:09;;;;;;;7.47;2.63;;;;;;;;;;5041442;28;20478;-86
2023/10/07 11:22:44;;;;;;;11.27;3.13;;;18.60;99.90;;;;;;5031719;28;20022;-86
2023/10/07 11:25:16;;;;;;;5.90;2.30;;;;;;;;;;5038535;28;20029;-86
2023/10/07 11:27:43;;;;;;;5.85;2.50;;;;;;;;;;5041071;28;20029;-86
2023/10/07 11:30:14;;;;;;;7.47;2.22;;;19.10;99.90;;;;;;5036452;28;20112;-87
2023/10/07 11:32:43;;;;;;;5.00;1.50;;;18.00;99.90;;;;;;5038700;28;20017;-87
2023/10/07 11:35:27;;;;;;;5.35;2.50;;;;;;;;;;5042677;28;20428;-85
2023/10/07 11:37:57;;;;;;;7.15;2.17;;;;;;;;;;5051147;28;20021;-86
2023/10/07 11:40:24;;;;;;;5.18;2.35;;;18.20;99.90;;;;;;5050960;28;20028;-87
2023/10/07 11:42:50;;;;;;;4.03;1.40;;;;;;;;;;5047308;28;20016;-86
2023/10/07 11:45:17;;;;;;;21.73;2.10;;;;;;;;;;5055453;28;20025;-86
2023/10/07 11:47:44;;;;;;;7.45;2.08;;;17.90;99.90;;;;;;5058077;28;20060;-86
2023/10/07 11:50:12;;;;;;;4.07;1.48;;;;;;;;;;5043040;28;20029;-87
2023/10/07 11:52:41;;;;;;;11.68;2.35;;;;;;;;;;5055026;28;20033;-88
2023/10/07 11:55:10;;;;;;;13.70;2.03;;;;;;;;;;5041963;28;20029;-86
2023/10/07 11:57:39;;;;;;;7.72;1.85;;;;;;;;;;5036559;28;20044;-85
2023/10/07 12:00:22;;;;;;;8.40;1.80;;;;;;;;;;5031486;28;20389;-86
2023/10/07 12:02:48;;;;;;;7.95;2.38;;;;;;;;;;5040934;28;20419;-86
2023/10/07 12:05:15;;;;;;;6.25;1.98;;;;;;;;;;5038113;28;20030;-85
2023/10/07 12:07:42;;;;;;;4.25;1.95;;;;;;;;;;5036179;28;20033;-85
2023/10/07 12:10:15;;;;;;;7.03;1.83;;;;;;;;;;5037197;28;20071;-85
2023/10/07 12:12:42;;;;;;;3.35;1.85;;;;;;;;;;5038114;28;20236;-86
2023/10/07 12:15:09;;;;;;;9.15;2.92;;;;;;;;;;5036925;28;20649;-87
2023/10/07 12:17:35;;;;;;;4.88;1.48;;;;;;;;;;5028566;28;20116;-86
2023/10/07 12:20:12;;;;;;;7.00;2.38;;;;;;;;;;5029290;28;20156;-87
2023/10/07 12:22:39;;;;;;;17.65;6.45;;;;;;;;;;5038010;28;20079;-87
2023/10/07 12:25:06;;;;;;;12.48;6.57;;;;;;;;;;5044300;28;20098;-87
2023/10/07 12:27:32;;;;;;;4.80;2.05;;;;;;;;;;5039243;28;20121;-86
2023/10/07 12:29:58;;;;;;;6.72;1.90;;;;;;;;;;5030948;28;20124;-88
2023/10/07 12:32:24;;;;;;;7.80;2.17;;;;;;;;;;5039589;28;20036;-87
2023/10/07 12:34:50;;;;;;;6.57;2.10;;;;;;;;;;5038150;28;20049;-86
2023/10/07 12:37:16;;;;;;;6.90;1.90;;;;;;;;;;5043954;28;20079;-87
2023/10/07 12:39:44;;;;;;;5.90;1.65;;;;;;;;;;5042785;28;20389;-86
2023/10/07 12:42:12;;;;;;;3.90;1.67;;;;;;;;;;5046984;28;20040;-85
2023/10/07 12:44:39;;;;;;;8.10;1.60;;;;;;;;;;5043169;28;20394;-85
2023/10/07 12:47:08;;;;;;;4.07;2.00;;;;;;;;;;5038678;28;20059;-87
2023/10/07 12:49:40;;;;;;;5.05;2.08;;;;;;;;;;5040130;28;20623;-87
2023/10/07 12:52:06;;;;;;;4.97;1.98;;;;;;;;;;5040996;28;20028;-86
2023/10/07 12:54:32;;;;;;;6.93;1.58;;;;;;;;;;5051270;28;20397;-87
2023/10/07 12:56:58;;;;;;;9.52;2.88;;;;;;;;;;5051648;28;20021;-86
2023/10/07 12:59:24;;;;;;;8.35;2.67;;;;;;;;;;5052610;28;20027;-86
2023/10/07 13:01:51;;;;;;;11.85;4.30;;;18.40;99.90;;;;;;5049545;28;20397;-86
2023/10/07 13:04:25;;;;;;;6.45;3.08;;;;;;;;;;5062318;28;20033;-86
2023/10/07 13:07:00;;;;;;;4.85;1.40;;;;;;;;;;5067860;28;20064;-85
2023/10/07 13:09:29;;;;;;;10.38;2.45;;;;;;;;;;5056790;28;20504;-87
2023/10/07 13:11:56;;;;;;;7.95;1.88;;;;;;;;;;5040072;28;20029;-87
2023/10/07 13:14:26;;;;;;;7.75;1.65;;;;;;;;;;5039989;28;20029;-87
2023/10/07 13:16:56;;;;;;;8.68;1.67;;;;;;;;;;5045958;28;20052;-87
2023/10/07 13:19:26;;;;;;;11.82;2.47;;;;;;;;;;5045111;28;20033;-86
2023/10/07 13:21:52;;;;;;;11.80;1.83;;;;;;;;;;5039725;28;20325;-87
2023/10/07 13:24:18;;;;;;;7.28;2.10;;;;;;;;;;5042517;28;20120;-87
2023/10/07 13:26:44;;;;;;;5.85;2.05;;;;;;;;;;5039918;28;20022;-87
2023/10/07 13:29:10;;;;;;;7.20;2.70;;;;;;;;;;5043485;28;20024;-87
2023/10/07 13:31:37;;;;;;;5.45;1.38;;;;;;;;;;5043451;28;20643;-86
2023/10/07 13:34:06;;;;;;;3.53;1.42;;;;;;;;;;5038485;28;20025;-86
2023/10/07 13:36:32;;;;;;;7.63;1.90;;;;;;;;;;5040390;28;20049;-85
2023/10/07 13:39:01;;;;;;;2.90;1.35;;;;;;;;;;5036092;28;20079;-87
2023/10/07 13:41:27;;;;;;;4.63;1.65;;;;;;;;;;5040386;28;20031;-87
2023/10/07 13:43:53;;;;;;;4.60;1.40;;;;;;;;;;5039315;28;20032;-87
2023/10/07 13:46:19;;;;;;;5.70;1.88;;;;;;;;;;5042308;28;20109;-87
2023/10/07 13:48:45;;;;;;;5.07;2.17;;;;;;;;;;5040265;28;20036;-86
2023/10/07 13:51:12;;;;;;;4.55;1.88;;;;;;;;;;5043872;28;20108;-86
2023/10/07 13:59:07;;;;;;;7.68;1.65;;;;;;;;;;5036232;28;20032;-84
2023/10/07 14:01:33;;;;;;;7.05;1.55;;;;;;;;;;5035314;28;20028;-85
2023/10/07 14:03:59;;;;;;;5.28;1.83;;;;;;;;;;5025645;28;20059;-86
2023/10/07 14:06:27;;;;;;;7.97;1.75;;;;;;;;;;5042562;28;20405;-85
2023/10/07 14:08:55;;;;;;;10.07;2.25;;;18.30;99.90;;;;;;5039203;28;20033;-86
2023/10/07 14:11:21;;;;;;;7.20;1.73;;;;;;;;;;5044681;28;20021;-85
2023/10/07 14:13:47;;;;;;;5.30;1.58;;;;;;;;;;5040351;28;20101;-86
2023/10/07 14:16:17;;;;;;;4.43;1.50;;;;;;;;;;5044554;28;20132;-86
2023/10/07 14:18:44;;;;;;;10.52;1.95;;;19.10;99.90;;;;;;5041432;28;20104;-85
2023/10/07 14:21:10;;;;;;;5.53;1.83;;;;;;;;;;5035628;28;20460;-86
2023/10/07 14:23:37;;;;;;;6.43;1.50;;;;;;;;;;5043694;28;20087;-86
2023/10/07 14:26:04;;;;;;;3.60;1.80;;;18.10;99.90;;;;;;5041796;28;20049;-86
2023/10/07 14:28:30;;;;;;;4.43;1.20;;;;;;;;;;5040108;28;20048;-85
2023/10/07 14:30:57;;;;;;;8.77;1.80;;;;;;;;;;5042048;28;20603;-85
2023/10/07 14:33:23;;;;;;;5.38;1.52;;;;;;;;;;5039222;28;20029;-85
2023/10/07 14:35:52;;;;;;;4.07;1.50;;;18.10;99.90;;;;;;5038819;28;20059;-84
2023/10/07 14:38:20;;;;;;;3.60;1.30;;;18.00;99.90;;;;;;5037021;28;20021;-86
2023/10/07 14:40:49;;;;;;;6.45;1.85;;;;;;;;;;5041575;28;20397;-86
2023/10/07 14:43:16;;;;;;;3.55;1.42;;;;;;;;;;5039111;28;20029;-86
2023/10/07 14:45:55;;;;;;;4.07;1.55;;;;;;;;;;5041335;28;20087;-86
2023/10/07 14:48:21;;;;;;;5.43;1.52;;;;;;;;;;5041831;28;20044;-85
2023/10/07 14:50:48;;;;;;;4.20;1.42;;;;;;;;;;5046879;28;20052;-85
2023/10/07 14:53:14;;;;;;;6.35;1.80;;;;;;;;;;5042733;28;20022;-86
2023/10/07 14:55:45;;;;;;;8.75;1.67;;;18.20;99.90;;;;;;5047222;28;20449;-85
2023/10/07 14:58:12;;;;;;;5.90;1.60;;;;;;;;;;5040540;28;20107;-85
2023/10/07 15:00:41;;;;;;;3.67;1.55;;;;;;;;;;5036925;28;20021;-85
2023/10/07 15:03:09;;;;;;;6.45;1.90;;;;;;;;;;5049651;28;20471;-85
2023/10/07 15:05:37;;;;;;;5.90;2.22;;;;;;;;;;5048635;28;20033;-86
2023/10/07 15:08:03;;;;;;;4.30;1.63;;;;;;;;;;5046162;28;20116;-87
2023/10/07 15:10:30;;;;;;;4.55;1.33;;;;;;;;;;5044410;28;20493;-85
2023/10/07 15:12:56;;;;;;;7.00;1.60;;;;;;;;;;5041912;28;20025;-85
2023/10/07 15:15:22;;;;;;;3.50;1.52;;;;;;;;;;5044408;28;20032;-86
2023/10/07 15:17:49;;;;;;;10.60;2.72;;;;;;;;;;5043750;28;20386;-85
2023/10/07 15:20:15;;;;;;;9.07;2.35;;;;;;;;;;5044637;28;20036;-86
2023/10/07 15:22:42;;;;;;;7.10;1.67;;;;;;;;;;5044322;28;20024;-86
2023/10/07 15:25:08;;;;;;;4.95;1.83;;;;;;;;;;5046088;28;20021;-85
2023/10/07 15:27:34;;;;;;;10.02;2.88;;;;;;;;;;5024069;28;20026;-85
2023/10/07 15:30:01;;;;;;;8.20;3.08;;;17.50;99.90;;;;;;5025597;28;20026;-86